Time,TemperatureF,DewpointF,PressureIn,WindDirection,WindDirectionDegrees,WindSpeedMPH,WindSpeedGustMPH,Humidity,HourlyPrecipIn,Conditions,Clouds,dailyrainin,SolarRadiationWatts/m^2,SoftwareType,DateUTC
2013-02-22 00:02:00,44.7,38.0,30.18,West,272,2.0,4.0,78,0.00,,,0.00,0,weatherlink.com 1.10,2013-02-22 08:02:00,
2013-02-22 00:17:00,44.5,37.0,30.18,West,271,0.0,2.0,74,0.00,,,0.00,0,weatherlink.com 1.10,2013-02-22 08:17:00,
2013-02-22 00:32:00,43.0,36.0,30.18,West,271,3.0,3.0,77,0.00,,,0.00,0,weatherlink.com 1.10,2013-02-22 08:32:00,
2013-02-22 00:47:00,42.0,36.0,30.18,West,265,2.0,4.0,80,0.00,,,0.00,0,weatherlink.com 1.10,2013-02-22 08:47:00,
2013-02-22 01:02:00,43.8,38.0,30.18,West,267,4.0,5.0,81,0.00,,,0.00,0,weatherlink.com 1.10,2013-02-22 09:02:00,
2013-02-22 01:17:00,45.7,39.0,30.18,West,273,4.0,5.0,76,0.00,,,0.00,0,weatherlink.com 1.10,2013-02-22 09:17:00,
2013-02-22 01:33:00,46.2,38.0,30.18,WSW,253,1.0,4.0,73,0.00,,,0.00,0,weatherlink.com 1.10,2013-02-22 09:33:00,
2013-02-22 01:47:00,46.1,38.0,30.18,West,268,3.0,5.0,74,0.00,,,0.00,0,weatherlink.com 1.10,2013-02-22 09:47:00,
2013-02-22 02:03:00,46.5,38.0,30.18,West,268,0.0,6.0,73,0.00,,,0.00,0,weatherlink.com 1.10,2013-02-22 10:03:00,
2013-02-22 02:18:00,45.9,37.0,30.19,West,268,0.0,2.0,71,0.00,,,0.00,0,weatherlink.com 1.10,2013-02-22 10:18:00,
2013-02-22 02:33:00,43.2,36.0,30.18,West,268,2.0,2.0,75,0.00,,,0.00,0,weatherlink.com 1.10,2013-02-22 10:33:00,
2013-02-22 02:48:00,40.7,36.0,30.18,West,268,1.0,2.0,84,0.00,,,0.00,0,weatherlink.com 1.10,2013-02-22 10:48:00,
2013-02-22 03:03:00,40.8,37.0,30.18,West,268,2.0,3.0,85,0.00,,,0.00,0,weatherlink.com 1.10,2013-02-22 11:03:00,
2013-02-22 03:18:00,40.7,37.0,30.18,West,268,0.0,2.0,85,0.00,,,0.00,0,weatherlink.com 1.10,2013-02-22 11:18:00,
2013-02-22 03:33:00,40.9,37.0,30.18,West,268,0.0,2.0,85,0.00,,,0.00,0,weatherlink.com 1.10,2013-02-22 11:33:00,
2013-02-22 03:48:00,40.3,36.0,30.18,West,268,2.0,3.0,85,0.00,,,0.00,0,weatherlink.com 1.10,2013-02-22 11:48:00,
2013-02-22 04:03:00,39.5,36.0,30.18,West,267,0.0,3.0,87,0.00,,,0.00,0,weatherlink.com 1.10,2013-02-22 12:03:00,
2013-02-22 04:18:00,39.2,36.0,30.19,West,267,1.0,2.0,87,0.00,,,0.00,0,weatherlink.com 1.10,2013-02-22 12:18:00,
2013-02-22 04:33:00,38.6,35.0,30.19,West,267,0.0,2.0,88,0.00,,,0.00,0,weatherlink.com 1.10,2013-02-22 12:33:00,
2013-02-22 04:48:00,38.1,35.0,30.18,West,267,1.0,2.0,89,0.00,,,0.00,0,weatherlink.com 1.10,2013-02-22 12:48:00,
2013-02-22 05:03:00,37.8,35.0,30.19,West,267,0.0,3.0,90,0.00,,,0.00,0,weatherlink.com 1.10,2013-02-22 13:03:00,
2013-02-22 05:18:00,38.4,36.0,30.20,West,267,2.0,2.0,91,0.00,,,0.00,0,weatherlink.com 1.10,2013-02-22 13:18:00,
2013-02-22 05:33:00,38.2,36.0,30.21,West,267,1.0,3.0,91,0.00,,,0.00,0,weatherlink.com 1.10,2013-02-22 13:33:00,
2013-02-22 05:48:00,38.3,36.0,30.21,West,267,2.0,3.0,91,0.00,,,0.00,0,weatherlink.com 1.10,2013-02-22 13:48:00,
2013-02-22 06:03:00,38.4,36.0,30.21,West,267,1.0,3.0,91,0.00,,,0.00,0,weatherlink.com 1.10,2013-02-22 14:03:00,
2013-02-22 06:18:00,39.7,38.0,30.21,West,271,1.0,5.0,93,0.00,,,0.00,0,weatherlink.com 1.10,2013-02-22 14:18:00,
2013-02-22 06:33:00,41.2,39.0,30.21,West,279,1.0,4.0,91,0.00,,,0.00,0,weatherlink.com 1.10,2013-02-22 14:33:00,
2013-02-22 06:48:00,41.8,39.0,30.22,West,275,2.0,4.0,89,0.00,,,0.00,0,weatherlink.com 1.10,2013-02-22 14:48:00,
2013-02-22 07:03:00,41.8,39.0,30.22,West,275,0.0,2.0,88,0.00,,,0.00,9,weatherlink.com 1.10,2013-02-22 15:03:00,
2013-02-22 07:18:00,41.1,37.0,30.23,West,275,1.0,2.0,86,0.00,,,0.00,19,weatherlink.com 1.10,2013-02-22 15:18:00,
2013-02-22 07:33:00,40.4,37.0,30.23,West,275,2.0,2.0,87,0.00,,,0.00,30,weatherlink.com 1.10,2013-02-22 15:33:00,
2013-02-22 07:48:00,40.3,37.0,30.23,West,275,1.0,2.0,89,0.00,,,0.00,39,weatherlink.com 1.10,2013-02-22 15:48:00,
2013-02-22 08:03:00,41.1,38.0,30.23,West,275,2.0,2.0,89,0.00,,,0.00,46,weatherlink.com 1.10,2013-02-22 16:03:00,
2013-02-22 08:18:00,42.3,39.0,30.24,West,275,1.0,1.0,89,0.00,,,0.00,51,weatherlink.com 1.10,2013-02-22 16:18:00,
2013-02-22 08:33:00,43.7,40.0,30.24,West,275,0.0,1.0,86,0.00,,,0.00,56,weatherlink.com 1.10,2013-02-22 16:33:00,
2013-02-22 08:48:00,45.5,40.0,30.24,West,275,1.0,2.0,81,0.00,,,0.00,63,weatherlink.com 1.10,2013-02-22 16:48:00,
2013-02-22 09:03:00,47.2,41.0,30.24,West,275,1.0,2.0,80,0.00,,,0.00,385,weatherlink.com 1.10,2013-02-22 17:03:00,
2013-02-22 09:18:00,48.3,41.0,30.24,West,267,3.0,4.0,77,0.00,,,0.00,404,weatherlink.com 1.10,2013-02-22 17:18:00,
2013-02-22 09:34:00,49.7,41.0,30.25,West,269,5.0,5.0,73,0.00,,,0.00,466,weatherlink.com 1.10,2013-02-22 17:34:00,
2013-02-22 09:49:00,50.9,42.0,30.25,West,269,3.0,4.0,71,0.00,,,0.00,508,weatherlink.com 1.10,2013-02-22 17:49:00,
2013-02-22 10:04:00,51.9,40.0,30.25,West,279,1.0,4.0,65,0.00,,,0.00,526,weatherlink.com 1.10,2013-02-22 18:04:00,
2013-02-22 10:19:00,53.1,41.0,30.25,West,269,1.0,2.0,63,0.00,,,0.00,578,weatherlink.com 1.10,2013-02-22 18:19:00,
2013-02-22 10:34:00,53.7,41.0,30.25,West,269,0.0,3.0,62,0.00,,,0.00,587,weatherlink.com 1.10,2013-02-22 18:34:00,
2013-02-22 10:49:00,55.0,39.0,30.25,West,265,1.0,4.0,55,0.00,,,0.00,619,weatherlink.com 1.10,2013-02-22 18:49:00,
2013-02-22 11:04:00,55.3,41.0,30.25,West,271,1.0,4.0,58,0.00,,,0.00,650,weatherlink.com 1.10,2013-02-22 19:04:00,
2013-02-22 11:19:00,55.9,41.0,30.25,West,264,1.0,5.0,57,0.00,,,0.00,666,weatherlink.com 1.10,2013-02-22 19:19:00,
2013-02-22 11:34:00,56.7,40.0,30.25,West,271,3.0,4.0,53,0.00,,,0.00,717,weatherlink.com 1.10,2013-02-22 19:34:00,
2013-02-22 11:49:00,56.2,39.0,30.24,WSW,250,2.0,6.0,53,0.00,,,0.00,218,weatherlink.com 1.10,2013-02-22 19:49:00,
2013-02-22 12:04:00,56.6,39.0,30.24,West,268,1.0,6.0,53,0.00,,,0.00,107,weatherlink.com 1.10,2013-02-22 20:04:00,
2013-02-22 12:19:00,57.0,39.0,30.25,West,266,0.0,7.0,52,0.00,,,0.00,139,weatherlink.com 1.10,2013-02-22 20:19:00,
2013-02-22 12:34:00,57.3,42.0,30.24,West,279,0.0,6.0,56,0.00,,,0.00,432,weatherlink.com 1.10,2013-02-22 20:34:00,
2013-02-22 12:49:00,57.2,42.0,30.23,West,264,4.0,8.0,58,0.00,,,0.00,46,weatherlink.com 1.10,2013-02-22 20:49:00,
2013-02-22 13:04:00,57.3,41.0,30.23,West,281,3.0,8.0,55,0.00,,,0.00,40,weatherlink.com 1.10,2013-02-22 21:04:00,
2013-02-22 13:19:00,57.2,37.0,30.22,West,267,4.0,6.0,47,0.00,,,0.00,35,weatherlink.com 1.10,2013-02-22 21:19:00,
2013-02-22 13:34:00,57.7,37.0,30.22,West,270,1.0,7.0,47,0.00,,,0.00,51,weatherlink.com 1.10,2013-02-22 21:34:00,
2013-02-22 13:49:00,58.1,41.0,30.21,West,267,4.0,7.0,53,0.00,,,0.00,33,weatherlink.com 1.10,2013-02-22 21:49:00,
2013-02-22 14:04:00,58.4,41.0,30.20,West,275,3.0,6.0,52,0.00,,,0.00,37,weatherlink.com 1.10,2013-02-22 22:04:00,
2013-02-22 14:19:00,58.6,39.0,30.20,West,271,2.0,5.0,49,0.00,,,0.00,32,weatherlink.com 1.10,2013-02-22 22:19:00,
2013-02-22 14:34:00,58.6,38.0,30.20,West,270,4.0,6.0,46,0.00,,,0.00,30,weatherlink.com 1.10,2013-02-22 22:34:00,
2013-02-22 14:49:00,58.2,36.0,30.20,NNW,333,1.0,5.0,44,0.00,,,0.00,39,weatherlink.com 1.10,2013-02-22 22:49:00,
2013-02-22 15:04:00,58.0,37.0,30.20,West,268,1.0,5.0,46,0.00,,,0.00,33,weatherlink.com 1.10,2013-02-22 23:04:00,
2013-02-22 15:19:00,57.7,37.0,30.20,West,263,2.0,6.0,46,0.00,,,0.00,26,weatherlink.com 1.10,2013-02-22 23:19:00,
2013-02-22 15:34:00,57.5,38.0,30.19,West,281,1.0,5.0,49,0.00,,,0.00,30,weatherlink.com 1.10,2013-02-22 23:34:00,
2013-02-22 15:49:00,57.4,38.0,30.20,WNW,293,1.0,3.0,49,0.00,,,0.00,26,weatherlink.com 1.10,2013-02-22 23:49:00,
2013-02-22 16:04:00,57.1,38.0,30.20,West,275,1.0,6.0,50,0.00,,,0.00,63,weatherlink.com 1.10,2013-02-23 00:04:00,
2013-02-22 16:19:00,56.8,38.0,30.20,SW,226,1.0,6.0,50,0.00,,,0.00,21,weatherlink.com 1.10,2013-02-23 00:19:00,
2013-02-22 16:34:00,56.3,40.0,30.19,SW,227,0.0,3.0,54,0.00,,,0.00,19,weatherlink.com 1.10,2013-02-23 00:34:00,
2013-02-22 16:49:00,55.7,40.0,30.19,SW,234,0.0,2.0,55,0.00,,,0.00,19,weatherlink.com 1.10,2013-02-23 00:49:00,
2013-02-22 17:04:00,55.2,40.0,30.19,WSW,251,0.0,1.0,57,0.00,,,0.00,18,weatherlink.com 1.10,2013-02-23 01:04:00,
2013-02-22 17:19:00,54.7,41.0,30.19,WSW,241,2.0,2.0,61,0.00,,,0.00,12,weatherlink.com 1.10,2013-02-23 01:19:00,
2013-02-22 17:34:00,54.1,41.0,30.18,WSW,239,1.0,1.0,62,0.00,,,0.00,12,weatherlink.com 1.10,2013-02-23 01:34:00,
2013-02-22 17:49:00,53.3,41.0,30.19,WSW,241,1.0,3.0,64,0.00,,,0.00,0,weatherlink.com 1.10,2013-02-23 01:49:00,
2013-02-22 18:04:00,52.5,41.0,30.19,WSW,242,1.0,1.0,66,0.00,,,0.00,0,weatherlink.com 1.10,2013-02-23 02:04:00,
2013-02-22 18:19:00,51.8,41.0,30.19,WSW,242,0.0,1.0,68,0.00,,,0.00,0,weatherlink.com 1.10,2013-02-23 02:19:00,
2013-02-22 18:34:00,51.0,42.0,30.18,WSW,242,0.0,1.0,70,0.00,,,0.00,0,weatherlink.com 1.10,2013-02-23 02:34:00,
2013-02-22 18:49:00,50.5,41.0,30.19,WSW,242,0.0,1.0,71,0.00,,,0.00,0,weatherlink.com 1.10,2013-02-23 02:49:00,
2013-02-22 19:19:00,49.7,42.0,30.21,WSW,242,0.0,1.0,76,0.00,,,0.00,0,weatherlink.com 1.10,2013-02-23 03:19:00,
2013-02-22 19:34:00,49.2,42.0,30.21,WSW,242,0.0,1.0,77,0.00,,,0.00,0,weatherlink.com 1.10,2013-02-23 03:34:00,
2013-02-22 19:49:00,48.8,43.0,30.21,WSW,242,0.0,1.0,79,0.00,,,0.00,0,weatherlink.com 1.10,2013-02-23 03:49:00,
2013-02-22 20:04:00,48.5,43.0,30.21,WSW,242,0.0,0.0,80,0.00,,,0.00,0,weatherlink.com 1.10,2013-02-23 04:04:00,
2013-02-22 20:19:00,48.3,43.0,30.20,WSW,242,0.0,2.0,81,0.00,,,0.00,0,weatherlink.com 1.10,2013-02-23 04:19:00,
2013-02-22 20:34:00,48.3,43.0,30.20,WSW,242,0.0,1.0,82,0.00,,,0.00,0,weatherlink.com 1.10,2013-02-23 04:34:00,
2013-02-22 20:49:00,48.2,43.0,30.19,WSW,242,0.0,1.0,83,0.00,,,0.00,0,weatherlink.com 1.10,2013-02-23 04:49:00,
2013-02-22 21:04:00,48.1,43.0,30.21,WSW,242,0.0,2.0,83,0.00,,,0.00,0,weatherlink.com 1.10,2013-02-23 05:04:00,
2013-02-22 21:19:00,47.9,43.0,30.22,WSW,242,0.0,0.0,82,0.00,,,0.00,0,weatherlink.com 1.10,2013-02-23 05:19:00,
2013-02-22 21:34:00,47.6,43.0,30.23,WSW,242,0.0,0.0,83,0.00,,,0.00,0,weatherlink.com 1.10,2013-02-23 05:34:00,
2013-02-22 21:49:00,47.4,43.0,30.23,WSW,242,0.0,1.0,83,0.00,,,0.00,0,weatherlink.com 1.10,2013-02-23 05:49:00,
2013-02-22 22:04:00,47.4,43.0,30.23,WSW,242,0.0,1.0,84,0.00,,,0.00,0,weatherlink.com 1.10,2013-02-23 06:04:00,
2013-02-22 22:20:00,47.5,43.0,30.23,WSW,242,0.0,1.0,84,0.00,,,0.00,0,weatherlink.com 1.10,2013-02-23 06:20:00,
2013-02-22 22:34:00,47.8,43.0,30.24,WSW,246,0.0,3.0,84,0.00,,,0.00,0,weatherlink.com 1.10,2013-02-23 06:34:00,
2013-02-22 22:49:00,48.0,43.0,30.24,WSW,246,0.0,2.0,84,0.00,,,0.00,0,weatherlink.com 1.10,2013-02-23 06:49:00,
2013-02-22 23:04:00,48.3,44.0,30.24,WSW,249,1.0,5.0,84,0.00,,,0.00,0,weatherlink.com 1.10,2013-02-23 07:04:00,
2013-02-22 23:19:00,48.6,43.0,30.23,West,267,5.0,6.0,82,0.00,,,0.00,0,weatherlink.com 1.10,2013-02-23 07:19:00,
2013-02-22 23:34:00,48.9,43.0,30.23,WNW,282,4.0,10.0,80,0.00,,,0.00,0,weatherlink.com 1.10,2013-02-23 07:34:00,
2013-02-22 23:49:00,49.4,43.0,30.23,West,269,7.0,11.0,78,0.00,,,0.00,0,weatherlink.com 1.10,2013-02-23 07:49:00,